Time;durP1;ratioP1;P1;durP2;ratioP2;P2;SDS_P1;SDS_P2;PMS_P1;PMS_P2;Temp;Humidity;BMP_temperature;BMP_pressure;BME280_temperature;BME280_humidity;BME280_pressure;Samples;Min_cycle;Max_cycle;Signal;HPM_P1;HPM_P2
2024/02/28 00:02:22;;;;;;;4.20;3.50;;;21.20;56.20;;;;;;5053102;28;20281;-70
2024/02/28 00:04:47;;;;;;;7.83;4.00;;;21.20;56.20;;;;;;5053238;28;20189;-70
2024/02/28 00:07:13;;;;;;;3.80;3.33;;;21.20;56.20;;;;;;5053865;28;20205;-70
2024/02/28 00:09:39;;;;;;;5.03;4.13;;;21.20;56.20;;;;;;5053370;28;20650;-69
2024/02/28 00:12:04;;;;;;;3.80;3.40;;;21.20;56.20;;;;;;5053306;28;20258;-69
2024/02/28 00:14:30;;;;;;;4.57;4.03;;;21.20;56.20;;;;;;5053459;28;20190;-69
2024/02/28 00:16:55;;;;;;;5.37;4.13;;;21.20;56.20;;;;;;5053447;28;20205;-70
2024/02/28 00:19:22;;;;;;;4.60;3.40;;;21.20;56.20;;;;;;5053430;28;20187;-70
2024/02/28 00:21:48;;;;;;;3.80;3.30;;;21.20;56.20;;;;;;5053291;28;20168;-70
2024/02/28 00:24:13;;;;;;;3.87;3.47;;;21.20;56.20;;;;;;5052944;28;20436;-70
2024/02/28 00:26:42;;;;;;;6.23;3.83;;;21.20;56.20;;;;;;5053319;28;20194;-69
2024/02/28 00:29:09;;;;;;;3.63;3.30;;;21.20;56.20;;;;;;5052973;28;20199;-70
2024/02/28 00:31:35;;;;;;;4.23;3.33;;;21.20;56.20;;;;;;5053267;28;20413;-70
2024/02/28 00:34:00;;;;;;;5.10;3.70;;;21.20;56.20;;;;;;5053427;28;20498;-70
2024/02/28 00:36:26;;;;;;;4.60;4.10;;;21.20;56.20;;;;;;5052878;28;20591;-70
2024/02/28 00:38:52;;;;;;;4.17;3.20;;;21.20;56.20;;;;;;5052931;28;20179;-69
2024/02/28 00:41:18;;;;;;;5.10;3.47;;;21.20;56.20;;;;;;5052499;28;20604;-70
2024/02/28 00:43:43;;;;;;;5.90;4.10;;;21.20;56.20;;;;;;5052791;28;20205;-69
2024/02/28 00:46:11;;;;;;;4.70;3.87;;;21.20;56.20;;;;;;5052701;28;20179;-68
2024/02/28 00:48:38;;;;;;;3.47;3.17;;;21.10;56.10;;;;;;5052834;28;20552;-70
2024/02/28 00:51:04;;;;;;;4.50;3.63;;;21.20;56.20;;;;;;5052940;28;20413;-70
2024/02/28 00:53:30;;;;;;;4.40;3.60;;;21.20;56.20;;;;;;5052405;28;20521;-70
2024/02/28 00:55:56;;;;;;;4.60;4.10;;;21.10;56.10;;;;;;5052416;28;21050;-70
2024/02/28 00:58:21;;;;;;;5.00;4.20;;;21.10;56.10;;;;;;5052183;28;20409;-69
2024/02/28 01:00:48;;;;;;;3.80;3.30;;;21.10;56.10;;;;;;5052347;28;20214;-70
2024/02/28 01:03:15;;;;;;;4.70;3.63;;;21.10;56.10;;;;;;5052442;28;20191;-70
2024/02/28 01:05:41;;;;;;;4.03;3.63;;;21.10;56.10;;;;;;5052812;28;20433;-70
2024/02/28 01:08:07;;;;;;;4.70;3.90;;;21.10;56.10;;;;;;5050942;28;20417;-70
2024/02/28 01:10:34;;;;;;;5.37;3.60;;;21.10;56.20;;;;;;5052248;28;20427;-70
2024/02/28 01:12:59;;;;;;;4.93;3.57;;;21.10;56.10;;;;;;5051538;28;20583;-70
2024/02/28 01:15:25;;;;;;;4.67;3.67;;;21.10;56.10;;;;;;5052282;28;20492;-70
2024/02/28 01:17:51;;;;;;;4.57;3.83;;;21.10;56.10;;;;;;5052483;28;20190;-69
2024/02/28 01:20:16;;;;;;;4.77;3.63;;;21.10;56.10;;;;;;5052569;28;20167;-69
2024/02/28 01:22:42;;;;;;;4.07;3.67;;;21.10;56.10;;;;;;5051908;28;20187;-69
2024/02/28 01:25:08;;;;;;;3.87;3.50;;;21.10;56.10;;;;;;5052381;28;20163;-70
2024/02/28 01:27:34;;;;;;;3.63;3.10;;;21.10;56.10;;;;;;5051911;28;20171;-69
2024/02/28 01:30:00;;;;;;;4.23;3.10;;;21.10;56.10;;;;;;5052067;28;20409;-70
2024/02/28 01:32:26;;;;;;;5.57;3.70;;;21.10;56.20;;;;;;5052133;28;20432;-70
2024/02/28 01:34:52;;;;;;;4.80;3.33;;;21.10;56.20;;;;;;5052162;28;20236;-68
2024/02/28 01:37:17;;;;;;;5.20;3.37;;;21.10;56.20;;;;;;5052416;28;20274;-69
2024/02/28 01:39:43;;;;;;;5.50;3.50;;;21.10;56.20;;;;;;5053915;28;20171;-69
2024/02/28 01:42:09;;;;;;;3.43;3.13;;;21.10;56.20;;;;;;5052272;28;20174;-70
2024/02/28 01:44:47;;;;;;;3.80;3.20;;;21.10;56.20;;;;;;5052561;28;20167;-69
2024/02/28 01:47:13;;;;;;;3.63;3.30;;;21.10;56.10;;;;;;5051953;28;20475;-69
2024/02/28 01:49:40;;;;;;;4.97;4.20;;;21.10;56.20;;;;;;5052001;28;20928;-70
2024/02/28 01:52:06;;;;;;;4.80;3.40;;;21.10;56.20;;;;;;5051799;28;20398;-70
2024/02/28 01:54:34;;;;;;;4.40;3.50;;;21.10;56.20;;;;;;5052101;28;20410;-71
2024/02/28 01:57:00;;;;;;;3.40;3.10;;;21.10;56.20;;;;;;5051292;28;20507;-69
2024/02/28 01:59:27;;;;;;;4.27;3.10;;;21.10;56.20;;;;;;5051613;28;20405;-68
2024/02/28 02:01:54;;;;;;;3.50;3.20;;;21.10;56.70;;;;;;5051481;28;20197;-70
2024/02/28 02:04:20;;;;;;;3.93;3.13;;;21.10;56.20;;;;;;5051388;28;20426;-70
2024/02/28 02:06:47;;;;;;;3.50;2.93;;;21.10;56.10;;;;;;5051481;28;20413;-70
2024/02/28 02:09:13;;;;;;;5.10;3.67;;;21.10;56.10;;;;;;5051709;28;20171;-70
2024/02/28 02:11:39;;;;;;;4.00;2.90;;;21.10;56.20;;;;;;5051583;28;21080;-70
2024/02/28 02:14:05;;;;;;;4.03;3.23;;;21.10;56.10;;;;;;5051180;28;20191;-70
2024/02/28 02:16:30;;;;;;;5.23;3.77;;;21.10;56.10;;;;;;5050053;28;20456;-70
2024/02/28 02:18:57;;;;;;;3.17;2.87;;;21.10;56.10;;;;;;5051193;28;20189;-69
2024/02/28 02:21:34;;;;;;;3.97;3.37;;;21.10;56.10;;;;;;5051104;28;20191;-69
2024/02/28 02:23:59;;;;;;;3.17;2.73;;;21.10;56.10;;;;;;5051544;28;20440;-70
2024/02/28 02:26:25;;;;;;;4.40;3.30;;;21.10;56.10;;;;;;5055411;28;20466;-69
2024/02/28 02:28:51;;;;;;;3.30;3.00;;;21.10;56.20;;;;;;5055402;28;20547;-70
2024/02/28 02:31:16;;;;;;;4.20;2.97;;;21.10;56.20;;;;;;5055315;28;20173;-70
2024/02/28 02:33:42;;;;;;;3.43;2.63;;;21.10;56.10;;;;;;5054770;28;20202;-70
2024/02/28 02:36:07;;;;;;;4.17;3.30;;;21.10;56.10;;;;;;5053762;28;20209;-71
2024/02/28 02:38:33;;;;;;;3.23;2.93;;;21.10;56.70;;;;;;5054992;28;20175;-70
2024/02/28 02:40:58;;;;;;;3.13;2.83;;;21.10;56.20;;;;;;5055473;28;20171;-70
2024/02/28 02:43:24;;;;;;;4.10;3.60;;;21.10;56.10;;;;;;5054957;28;20199;-70
2024/02/28 02:45:50;;;;;;;3.80;3.30;;;21.10;56.10;;;;;;5054883;28;20551;-70
2024/02/28 02:48:15;;;;;;;3.93;3.50;;;21.10;56.10;;;;;;5054695;28;20258;-69
2024/02/28 02:50:41;;;;;;;5.13;3.80;;;21.10;56.20;;;;;;5054573;28;20540;-69
2024/02/28 02:53:09;;;;;;;3.97;3.17;;;21.10;56.10;;;;;;5053252;28;20430;-70
2024/02/28 02:55:35;;;;;;;4.30;3.57;;;21.10;56.20;;;;;;5054606;28;20519;-70
2024/02/28 02:58:02;;;;;;;3.50;2.90;;;21.10;56.20;;;;;;5054961;28;20409;-69
2024/02/28 03:00:28;;;;;;;3.60;3.30;;;21.10;56.10;;;;;;5054590;28;20167;-69
2024/02/28 03:02:53;;;;;;;3.70;3.23;;;21.00;56.10;;;;;;5054893;28;20429;-69
2024/02/28 03:05:19;;;;;;;4.17;3.30;;;21.00;56.10;;;;;;5055127;28;20424;-71
2024/02/28 03:07:45;;;;;;;3.10;2.67;;;21.10;56.20;;;;;;5054808;28;20175;-70
2024/02/28 03:10:10;;;;;;;3.20;2.90;;;21.10;56.10;;;;;;5054765;28;20174;-70
2024/02/28 03:12:36;;;;;;;3.27;2.97;;;21.00;56.10;;;;;;5054625;28;20748;-69
2024/02/28 03:15:03;;;;;;;3.50;3.07;;;21.00;56.10;;;;;;5054967;28;20179;-70
2024/02/28 03:17:29;;;;;;;3.40;3.10;;;21.00;56.10;;;;;;5054523;28;20272;-69
2024/02/28 03:19:55;;;;;;;3.13;2.80;;;21.10;56.20;;;;;;5054460;28;20483;-70
2024/02/28 03:22:20;;;;;;;3.87;3.40;;;21.00;56.10;;;;;;5054271;28;20933;-68
2024/02/28 03:24:46;;;;;;;3.83;3.00;;;21.00;56.10;;;;;;5054439;28;20206;-70
2024/02/28 03:27:12;;;;;;;4.50;3.27;;;21.00;56.10;;;;;;5054016;28;20171;-70
2024/02/28 03:29:37;;;;;;;3.50;3.20;;;21.00;56.10;;;;;;5054517;28;20600;-70
2024/02/28 03:32:03;;;;;;;3.23;2.70;;;21.00;56.10;;;;;;5053063;28;20190;-71
2024/02/28 03:34:29;;;;;;;3.40;3.10;;;21.00;56.10;;;;;;5054208;28;20602;-71
2024/02/28 03:36:55;;;;;;;3.67;3.27;;;21.00;56.10;;;;;;5053486;28;20553;-70
2024/02/28 03:39:21;;;;;;;3.97;3.17;;;21.00;56.10;;;;;;5054237;28;20536;-68
2024/02/28 03:41:46;;;;;;;3.10;2.53;;;21.00;56.10;;;;;;5054152;28;20535;-70
2024/02/28 03:44:12;;;;;;;2.97;2.67;;;21.00;56.10;;;;;;5054220;28;20195;-71
2024/02/28 03:46:37;;;;;;;5.63;3.10;;;21.00;56.10;;;;;;5053950;28;20171;-70
2024/02/28 03:49:03;;;;;;;3.30;2.97;;;21.00;56.10;;;;;;5053896;28;20199;-69
2024/02/28 03:51:29;;;;;;;3.50;3.20;;;21.00;56.10;;;;;;5054153;28;20626;-70
2024/02/28 03:53:55;;;;;;;3.63;3.10;;;21.00;56.10;;;;;;5054474;28;20191;-69
2024/02/28 03:56:27;;;;;;;4.40;3.33;;;21.00;56.10;;;;;;5054308;28;20506;-70
2024/02/28 03:58:53;;;;;;;2.47;2.20;;;21.00;56.10;;;;;;5053721;28;20174;-69
2024/02/28 04:01:19;;;;;;;3.97;3.57;;;21.00;56.10;;;;;;5053804;28;20410;-70
2024/02/28 04:03:44;;;;;;;3.30;3.00;;;21.00;56.10;;;;;;5053894;28;20440;-70
2024/02/28 04:06:10;;;;;;;4.90;3.40;;;21.00;56.10;;;;;;5053546;28;20198;-70
2024/02/28 04:08:36;;;;;;;3.47;2.80;;;21.00;56.10;;;;;;5053486;28;20183;-70
2024/02/28 04:11:02;;;;;;;3.37;2.90;;;21.00;56.10;;;;;;5053607;28;20230;-70
2024/02/28 04:13:27;;;;;;;3.23;2.77;;;21.00;56.10;;;;;;5053971;28;20953;-69
2024/02/28 04:15:53;;;;;;;3.43;2.80;;;21.00;56.10;;;;;;5053452;28;20190;-70
2024/02/28 04:18:18;;;;;;;2.70;2.50;;;21.00;56.10;;;;;;5053581;28;20190;-71
2024/02/28 04:20:44;;;;;;;4.03;3.37;;;21.00;56.10;;;;;;5053340;28;20175;-69
2024/02/28 04:23:10;;;;;;;3.20;2.90;;;21.00;56.10;;;;;;5053615;28;20187;-69
2024/02/28 04:25:35;;;;;;;3.30;2.97;;;20.90;56.10;;;;;;5053401;28;20588;-70
2024/02/28 04:28:02;;;;;;;3.20;2.57;;;20.90;56.10;;;;;;5053328;28;20171;-70
2024/02/28 04:30:28;;;;;;;3.33;2.73;;;21.00;56.10;;;;;;5053680;28;20225;-70
2024/02/28 04:32:53;;;;;;;3.07;2.57;;;21.00;56.10;;;;;;5053435;28;20425;-70
2024/02/28 04:35:19;;;;;;;4.13;3.40;;;20.90;56.10;;;;;;5053599;28;20175;-70
2024/02/28 04:37:45;;;;;;;3.13;2.83;;;20.90;56.00;;;;;;5053747;28;20542;-70
2024/02/28 04:40:11;;;;;;;3.50;2.90;;;20.90;56.00;;;;;;5052885;28;20240;-70
2024/02/28 04:42:37;;;;;;;3.50;2.67;;;20.90;56.00;;;;;;5052944;28;20944;-70
2024/02/28 04:45:03;;;;;;;4.17;3.10;;;21.00;56.10;;;;;;5052782;28;20458;-70
2024/02/28 04:47:29;;;;;;;3.23;2.57;;;20.90;56.00;;;;;;5052775;28;20224;-70
2024/02/28 04:49:55;;;;;;;5.13;3.33;;;21.00;56.10;;;;;;5052726;28;20909;-70
2024/02/28 04:52:21;;;;;;;5.30;2.53;;;20.90;56.00;;;;;;5053109;28;20444;-70
2024/02/28 04:54:47;;;;;;;3.60;2.90;;;20.90;56.00;;;;;;5051348;28;20304;-69
2024/02/28 04:57:13;;;;;;;3.10;2.70;;;21.00;56.10;;;;;;5052792;28;20894;-70
2024/02/28 04:59:38;;;;;;;3.13;2.83;;;20.90;56.00;;;;;;5052524;28;20665;-70
2024/02/28 05:02:05;;;;;;;2.30;2.10;;;20.90;56.10;;;;;;5052673;28;20546;-70
2024/02/28 05:04:30;;;;;;;3.63;2.57;;;20.90;56.10;;;;;;5051172;28;20270;-70
2024/02/28 05:06:56;;;;;;;4.03;2.93;;;20.90;56.10;;;;;;5052699;28;20995;-70
2024/02/28 05:09:21;;;;;;;2.90;2.60;;;20.90;56.00;;;;;;5052700;28;20190;-70
2024/02/28 05:11:47;;;;;;;2.60;2.40;;;20.90;56.10;;;;;;5053292;28;20175;-70
2024/02/28 05:14:13;;;;;;;2.63;2.43;;;20.90;56.00;;;;;;5052526;28;20229;-70
2024/02/28 05:16:38;;;;;;;3.20;2.90;;;20.90;56.00;;;;;;5052924;28;20198;-70
2024/02/28 05:19:06;;;;;;;3.00;2.70;;;21.00;56.10;;;;;;5052574;28;20183;-69
2024/02/28 05:21:38;;;;;;;2.63;2.43;;;21.00;56.10;;;;;;5052300;28;20169;-70
2024/02/28 05:24:04;;;;;;;2.50;2.30;;;21.00;56.10;;;;;;5052309;28;20440;-70
2024/02/28 05:26:33;;;;;;;3.30;2.50;;;21.00;56.10;;;;;;5052960;28;20405;-70
2024/02/28 05:28:59;;;;;;;3.70;2.57;;;21.00;56.10;;;;;;5052941;28;20534;-70
2024/02/28 05:31:26;;;;;;;2.60;2.40;;;21.00;56.10;;;;;;5050956;28;20424;-70
2024/02/28 05:33:59;;;;;;;3.57;3.10;;;21.00;56.10;;;;;;5052050;28;20277;-68
2024/02/28 05:36:29;;;;;;;4.40;3.47;;;21.00;56.10;;;;;;5052533;28;20974;-70
2024/02/28 05:38:55;;;;;;;3.83;3.40;;;21.00;55.80;;;;;;5052996;28;20788;-71
2024/02/28 05:41:22;;;;;;;4.83;4.43;;;21.00;55.60;;;;;;5053538;28;20418;-68
2024/02/28 05:43:48;;;;;;;4.77;3.80;;;21.00;55.40;;;;;;5050804;28;20445;-70
2024/02/28 05:46:15;;;;;;;3.10;2.80;;;21.00;55.50;;;;;;5052380;28;20409;-70
2024/02/28 05:48:41;;;;;;;3.10;2.77;;;21.00;55.50;;;;;;5052059;28;20416;-71
2024/02/28 05:51:07;;;;;;;3.10;2.60;;;20.90;55.50;;;;;;5052146;28;20405;-67
2024/02/28 05:53:35;;;;;;;2.70;2.50;;;20.90;55.50;;;;;;5052239;28;20433;-70
2024/02/28 05:56:01;;;;;;;3.40;2.70;;;21.00;55.70;;;;;;5051722;28;20191;-70
2024/02/28 05:58:27;;;;;;;2.70;2.50;;;20.90;55.60;;;;;;5052658;28;20414;-69
2024/02/28 06:00:53;;;;;;;2.90;2.37;;;21.00;55.70;;;;;;5056841;28;20402;-70
2024/02/28 06:03:18;;;;;;;2.90;2.60;;;21.00;55.80;;;;;;5056183;28;20187;-70
2024/02/28 06:05:44;;;;;;;3.30;2.60;;;21.00;55.80;;;;;;5055764;28;20167;-70
2024/02/28 06:08:10;;;;;;;2.83;2.50;;;21.00;55.80;;;;;;5056625;28;20274;-69
2024/02/28 06:10:35;;;;;;;3.20;2.70;;;21.00;55.80;;;;;;5055870;28;20175;-70
2024/02/28 06:13:02;;;;;;;3.00;2.70;;;21.00;55.80;;;;;;5055961;28;20199;-70
2024/02/28 06:15:28;;;;;;;4.83;3.00;;;21.00;55.80;;;;;;5056201;28;20179;-70
2024/02/28 06:17:56;;;;;;;3.10;2.70;;;21.00;55.80;;;;;;5056042;28;20491;-70
2024/02/28 06:20:22;;;;;;;3.30;2.47;;;21.00;55.80;;;;;;5056088;28;20556;-70
2024/02/28 06:22:47;;;;;;;2.50;2.30;;;21.00;55.80;;;;;;5056377;28;20508;-70
2024/02/28 06:25:18;;;;;;;2.80;2.30;;;21.00;55.90;;;;;;5056435;28;20174;-70
2024/02/28 06:27:44;;;;;;;3.33;2.70;;;21.00;55.90;;;;;;5057105;28;20166;-70
2024/02/28 06:30:10;;;;;;;3.13;2.83;;;21.00;55.90;;;;;;5055816;28;20440;-70
2024/02/28 06:32:36;;;;;;;3.00;2.70;;;21.00;55.90;;;;;;5056225;28;20191;-71
2024/02/28 06:35:01;;;;;;;2.90;2.60;;;21.00;55.90;;;;;;5057127;28;21033;-70
2024/02/28 06:37:27;;;;;;;2.60;2.37;;;21.10;56.50;;;;;;5057246;28;20209;-70
2024/02/28 06:39:53;;;;;;;4.00;2.53;;;21.10;56.00;;;;;;5056756;28;20164;-70
2024/02/28 06:42:19;;;;;;;2.40;2.20;;;21.10;55.90;;;;;;5057990;28;20413;-68
2024/02/28 06:44:44;;;;;;;2.67;2.20;;;21.10;55.90;;;;;;5055471;28;20273;-69
2024/02/28 06:47:10;;;;;;;3.60;2.63;;;21.10;55.90;;;;;;5056347;28;20199;-69
2024/02/28 06:49:36;;;;;;;3.23;2.40;;;21.10;55.90;;;;;;5057703;28;20652;-70
2024/02/28 06:52:01;;;;;;;3.43;2.60;;;21.20;56.00;;;;;;5057694;28;20197;-69
2024/02/28 06:54:30;;;;;;;2.70;2.33;;;21.20;56.00;;;;;;5057307;28;20185;-70
2024/02/28 06:56:57;;;;;;;3.27;2.83;;;21.20;55.90;;;;;;5055528;28;20199;-70
2024/02/28 06:59:23;;;;;;;3.03;2.20;;;21.20;55.90;;;;;;5057515;28;20528;-70
2024/02/28 07:01:49;;;;;;;4.33;3.00;;;21.20;55.90;;;;;;5055961;28;20448;-71
2024/02/28 07:04:14;;;;;;;2.67;2.30;;;21.20;55.90;;;;;;5055321;28;20310;-70
2024/02/28 07:06:40;;;;;;;3.23;2.77;;;21.20;55.90;;;;;;5055730;28;20190;-72
2024/02/28 07:09:08;;;;;;;3.17;2.60;;;21.20;55.90;;;;;;5055560;28;20224;-70
2024/02/28 07:11:34;;;;;;;3.00;2.40;;;21.30;55.90;;;;;;5037343;28;20270;-70
2024/02/28 07:14:02;;;;;;;2.80;2.40;;;21.30;55.90;;;;;;5055586;28;20494;-71
2024/02/28 07:16:33;;;;;;;2.87;2.50;;;21.30;55.90;;;;;;5055603;28;20748;-70
2024/02/28 07:18:59;;;;;;;2.93;2.40;;;21.30;55.90;;;;;;5055094;28;20440;-70
2024/02/28 07:21:25;;;;;;;5.60;3.27;;;21.30;55.90;;;;;;5055542;28;20432;-71
2024/02/28 07:23:51;;;;;;;2.60;2.40;;;21.30;55.90;;;;;;5055330;28;20441;-70
2024/02/28 07:26:17;;;;;;;3.10;2.47;;;21.30;55.90;;;;;;5056021;28;20524;-70
2024/02/28 07:28:43;;;;;;;2.87;2.60;;;21.30;55.90;;;;;;5055727;28;20190;-70
2024/02/28 07:31:35;;;;;;;3.20;2.80;;;21.30;55.80;;;;;;5056091;28;20409;-71
2024/02/28 07:34:01;;;;;;;4.10;3.10;;;21.30;55.80;;;;;;5053724;28;20812;-70
2024/02/28 07:36:26;;;;;;;2.87;2.50;;;21.30;55.80;;;;;;5056761;28;20449;-70
2024/02/28 07:38:53;;;;;;;3.60;3.13;;;21.30;55.90;;;;;;5057124;28;20175;-70
2024/02/28 07:41:18;;;;;;;3.37;2.57;;;21.30;55.80;;;;;;5055217;28;20174;-70
2024/02/28 07:43:44;;;;;;;3.67;2.53;;;21.30;55.80;;;;;;5056358;28;20948;-69
2024/02/28 07:46:11;;;;;;;3.90;2.50;;;21.30;55.90;;;;;;5056117;28;20175;-69
2024/02/28 07:48:39;;;;;;;3.00;2.40;;;21.30;55.80;;;;;;5055836;28;20201;-70
2024/02/28 07:51:05;;;;;;;3.03;2.40;;;21.30;55.80;;;;;;5055562;28;20436;-70
2024/02/28 07:53:31;;;;;;;3.07;2.20;;;21.30;55.90;;;;;;5056040;28;20496;-68
2024/02/28 07:55:57;;;;;;;3.30;2.50;;;21.30;55.90;;;;;;5055862;28;20503;-69
2024/02/28 07:58:23;;;;;;;2.80;2.30;;;21.30;55.90;;;;;;5054953;28;20797;-67
2024/02/28 08:00:49;;;;;;;3.70;2.73;;;21.30;55.90;;;;;;5054891;28;20553;-70
2024/02/28 08:03:16;;;;;;;3.00;2.47;;;21.30;55.90;;;;;;5055003;28;20535;-69
2024/02/28 08:05:43;;;;;;;4.60;2.73;;;21.30;55.90;;;;;;5054894;28;20409;-71
2024/02/28 08:08:09;;;;;;;3.57;2.30;;;21.30;55.90;;;;;;5055039;28;20431;-70
2024/02/28 08:10:37;;;;;;;3.07;2.40;;;21.30;55.90;;;;;;5054868;28;20492;-69
2024/02/28 08:13:04;;;;;;;2.43;2.13;;;21.30;56.00;;;;;;5054390;28;20195;-71
2024/02/28 08:15:29;;;;;;;2.90;2.43;;;21.30;55.90;;;;;;5054992;28;20402;-70
2024/02/28 08:17:55;;;;;;;2.40;2.13;;;21.30;55.90;;;;;;5055172;28;20531;-70
2024/02/28 08:20:20;;;;;;;3.20;2.60;;;21.30;55.90;;;;;;5054463;28;20199;-71
2024/02/28 08:22:46;;;;;;;3.67;2.60;;;21.30;56.00;;;;;;5053703;28;20669;-69
2024/02/28 08:25:12;;;;;;;2.87;2.40;;;21.30;56.00;;;;;;5055049;28;20174;-70
2024/02/28 08:27:39;;;;;;;4.77;2.50;;;21.30;55.90;;;;;;5054542;28;20407;-70
2024/02/28 08:30:06;;;;;;;3.67;2.80;;;21.30;55.90;;;;;;5054705;28;20448;-70
2024/02/28 08:32:32;;;;;;;3.00;2.40;;;21.30;55.90;;;;;;5054446;28;20436;-68
2024/02/28 08:34:58;;;;;;;2.67;2.17;;;21.30;56.00;;;;;;5053933;28;20409;-70
2024/02/28 08:37:28;;;;;;;3.50;2.30;;;21.30;55.90;;;;;;5053797;28;20544;-70
2024/02/28 08:39:57;;;;;;;2.90;2.10;;;21.30;55.90;;;;;;5054327;28;20152;-69
2024/02/28 08:42:25;;;;;;;3.77;2.47;;;21.30;56.00;;;;;;5054562;28;20429;-69
2024/02/28 08:44:51;;;;;;;2.97;2.67;;;21.30;56.00;;;;;;5054389;28;20920;-69
2024/02/28 08:47:16;;;;;;;3.10;2.50;;;21.40;56.10;;;;;;5054368;28;20419;-70
2024/02/28 08:49:42;;;;;;;3.20;2.87;;;21.30;56.00;;;;;;5053938;28;20709;-70
2024/02/28 08:52:07;;;;;;;2.63;2.10;;;21.30;56.00;;;;;;5053991;28;20669;-70
2024/02/28 08:54:33;;;;;;;2.73;2.20;;;21.30;56.00;;;;;;5054449;28;20174;-68
2024/02/28 08:56:58;;;;;;;4.73;2.80;;;21.30;56.00;;;;;;5054113;28;20696;-71
2024/02/28 08:59:25;;;;;;;2.70;2.23;;;21.30;56.00;;;;;;5053985;28;20182;-70
2024/02/28 09:01:51;;;;;;;3.27;2.20;;;21.30;56.00;;;;;;5054342;28;20163;-71
2024/02/28 09:04:16;;;;;;;3.90;2.73;;;21.40;56.10;;;;;;5054752;28;20491;-70
2024/02/28 09:06:42;;;;;;;2.70;2.37;;;21.40;56.10;;;;;;5054618;28;20171;-70
2024/02/28 09:09:07;;;;;;;3.60;2.27;;;21.40;56.10;;;;;;5054363;28;20591;-69
2024/02/28 09:11:33;;;;;;;3.33;2.10;;;21.40;56.10;;;;;;5054211;28;20210;-70
2024/02/28 09:13:59;;;;;;;2.97;2.10;;;21.40;56.10;;;;;;5053617;28;20248;-69
2024/02/28 09:16:24;;;;;;;2.90;2.37;;;21.30;56.00;;;;;;5054543;28;20279;-70
2024/02/28 09:18:50;;;;;;;3.40;2.33;;;21.40;56.10;;;;;;5053974;28;20474;-70
2024/02/28 09:21:16;;;;;;;2.40;2.20;;;21.40;56.10;;;;;;5053561;28;20183;-70
2024/02/28 09:23:41;;;;;;;2.77;2.27;;;21.40;56.10;;;;;;5053305;28;20194;-69
2024/02/28 09:26:07;;;;;;;3.37;2.10;;;21.40;56.10;;;;;;5054210;28;20222;-71
2024/02/28 09:28:33;;;;;;;2.60;2.27;;;21.40;56.60;;;;;;5053862;28;20646;-70
2024/02/28 09:30:59;;;;;;;2.70;2.50;;;21.40;56.10;;;;;;5054115;28;20422;-71
2024/02/28 09:33:24;;;;;;;2.20;2.00;;;21.40;56.10;;;;;;5053243;28;20803;-71
2024/02/28 09:35:50;;;;;;;2.93;2.23;;;21.40;56.10;;;;;;5053685;28;20803;-69
2024/02/28 09:38:16;;;;;;;2.73;2.53;;;21.40;56.10;;;;;;5053899;28;20169;-69
2024/02/28 09:40:45;;;;;;;3.57;2.93;;;21.40;56.10;;;;;;5053088;28;20167;-70
2024/02/28 09:43:32;;;;;;;2.87;1.97;;;21.40;56.10;;;;;;5053357;28;20205;-69
2024/02/28 09:46:04;;;;;;;4.63;1.93;;;21.40;56.20;;;;;;5053774;28;20775;-69
2024/02/28 09:48:30;;;;;;;2.67;2.47;;;21.40;56.20;;;;;;5054009;28;20444;-70
2024/02/28 09:51:00;;;;;;;4.70;2.40;;;21.40;56.20;;;;;;5053168;28;20837;-70
2024/02/28 09:53:26;;;;;;;4.13;2.70;;;21.40;56.20;;;;;;5052004;28;20487;-69
2024/02/28 09:55:52;;;;;;;2.67;2.13;;;21.40;56.70;;;;;;5053468;28;20456;-70
2024/02/28 09:58:20;;;;;;;2.40;2.20;;;21.40;56.20;;;;;;5053827;28;20441;-70
2024/02/28 10:00:46;;;;;;;3.83;2.40;;;21.40;56.20;;;;;;5053925;28;20231;-70
2024/02/28 10:03:17;;;;;;;3.70;2.80;;;21.40;56.20;;;;;;5053000;28;20464;-69
2024/02/28 10:05:43;;;;;;;3.67;2.73;;;21.40;56.20;;;;;;5053413;28;20394;-69
2024/02/28 10:08:09;;;;;;;3.10;2.63;;;21.40;56.20;;;;;;5053475;28;20421;-70
2024/02/28 10:10:38;;;;;;;2.93;2.57;;;21.40;56.20;;;;;;5053286;28;20260;-70
2024/02/28 10:13:04;;;;;;;3.43;2.40;;;21.40;56.20;;;;;;5053229;28;20493;-70
2024/02/28 10:15:30;;;;;;;2.80;2.40;;;21.40;56.20;;;;;;5052854;28;20463;-71
2024/02/28 10:17:56;;;;;;;3.17;2.40;;;21.40;56.20;;;;;;5053026;28;20469;-70
2024/02/28 10:20:21;;;;;;;2.73;2.40;;;21.40;56.20;;;;;;5052732;28;20413;-70
2024/02/28 10:22:47;;;;;;;1.90;1.67;;;21.40;56.20;;;;;;5052910;28;20616;-69
2024/02/28 10:25:14;;;;;;;3.33;2.47;;;21.40;56.20;;;;;;5051791;28;20182;-70
2024/02/28 10:27:41;;;;;;;2.77;1.87;;;21.40;56.20;;;;;;5051268;28;20234;-70
2024/02/28 10:30:07;;;;;;;4.20;2.43;;;21.40;56.30;;;;;;5053347;28;20424;-70
2024/02/28 10:32:36;;;;;;;5.33;2.10;;;21.40;56.30;;;;;;5051535;28;20433;-70
2024/02/28 10:35:03;;;;;;;3.57;2.70;;;21.40;56.30;;;;;;5053326;28;20418;-71
2024/02/28 10:37:32;;;;;;;3.03;2.13;;;21.40;56.30;;;;;;5053249;28;20461;-69
2024/02/28 10:39:58;;;;;;;3.57;2.60;;;21.40;56.30;;;;;;5053105;28;20546;-69
2024/02/28 10:42:27;;;;;;;2.73;2.40;;;21.40;56.30;;;;;;5052325;28;20516;-69
2024/02/28 10:44:55;;;;;;;2.73;2.10;;;21.40;56.30;;;;;;5054109;28;21087;-69
2024/02/28 10:47:21;;;;;;;2.73;2.50;;;21.40;56.30;;;;;;5055131;28;20436;-70
2024/02/28 10:49:46;;;;;;;3.40;2.60;;;21.40;56.30;;;;;;5057444;28;20532;-70
2024/02/28 10:52:14;;;;;;;2.77;2.43;;;21.40;56.30;;;;;;5057096;28;21289;-70
2024/02/28 10:54:43;;;;;;;2.57;1.60;;;21.40;56.30;;;;;;5056725;28;20202;-71
2024/02/28 10:57:13;;;;;;;2.63;2.13;;;21.40;56.40;;;;;;5056056;28;20532;-70
2024/02/28 10:59:40;;;;;;;3.07;1.70;;;21.40;56.40;;;;;;5056797;28;20409;-70
2024/02/28 11:02:06;;;;;;;2.30;2.10;;;21.30;56.30;;;;;;5056497;28;20441;-70
2024/02/28 11:04:32;;;;;;;3.20;2.90;;;21.40;56.40;;;;;;5056897;28;20829;-70
2024/02/28 11:06:57;;;;;;;2.70;2.30;;;21.30;56.30;;;;;;5056951;28;20504;-70
2024/02/28 11:09:28;;;;;;;3.70;2.10;;;21.40;56.40;;;;;;5056439;28;20421;-71
2024/02/28 11:11:55;;;;;;;2.20;1.97;;;21.40;56.40;;;;;;5056649;28;20209;-71
2024/02/28 11:14:22;;;;;;;2.70;2.10;;;21.40;56.40;;;;;;5055588;28;20464;-70
2024/02/28 11:16:58;;;;;;;2.47;2.00;;;21.30;56.90;;;;;;5055908;28;20453;-70
2024/02/28 11:19:24;;;;;;;2.77;2.37;;;21.40;56.40;;;;;;5056192;28;20441;-70
2024/02/28 11:21:57;;;;;;;2.70;1.90;;;21.30;56.40;;;;;;5055862;28;20828;-71
2024/02/28 11:24:27;;;;;;;3.43;2.13;;;21.40;56.40;;;;;;5055764;28;20195;-69
2024/02/28 11:26:53;;;;;;;2.80;2.17;;;21.30;56.40;;;;;;5055689;28;20436;-70
2024/02/28 11:29:26;;;;;;;4.50;2.20;;;21.40;56.40;;;;;;5055668;28;20452;-69
2024/02/28 11:31:53;;;;;;;2.90;2.10;;;21.40;56.40;;;;;;5056452;28;20206;-69
2024/02/28 11:34:19;;;;;;;2.80;2.03;;;21.40;56.50;;;;;;5056022;28;20849;-69
2024/02/28 11:36:49;;;;;;;3.07;2.20;;;21.40;56.50;;;;;;5056059;28;20510;-71
2024/02/28 11:39:15;;;;;;;4.30;2.80;;;21.40;56.50;;;;;;5055764;28;20496;-69
2024/02/28 11:41:41;;;;;;;2.87;2.00;;;21.40;56.50;;;;;;5055593;28;20483;-70
2024/02/28 11:44:07;;;;;;;3.20;2.20;;;21.40;56.50;;;;;;5054537;28;21068;-68
2024/02/28 11:46:33;;;;;;;2.53;2.20;;;21.40;56.50;;;;;;5055366;28;20179;-71
2024/02/28 11:49:00;;;;;;;2.30;2.00;;;21.40;56.50;;;;;;5055657;28;20417;-69
2024/02/28 11:51:26;;;;;;;4.03;2.20;;;21.40;56.50;;;;;;5055819;28;20262;-69
2024/02/28 11:53:51;;;;;;;3.43;2.33;;;21.40;56.50;;;;;;5055966;28;20479;-69
2024/02/28 11:56:17;;;;;;;2.30;2.10;;;21.40;56.50;;;;;;5054392;28;20203;-69
2024/02/28 11:58:53;;;;;;;2.13;1.87;;;21.40;56.50;;;;;;5055363;28;20186;-69
2024/02/28 12:01:20;;;;;;;2.37;1.80;;;21.40;56.50;;;;;;5055825;28;20171;-70
2024/02/28 12:03:46;;;;;;;2.10;1.90;;;21.40;56.50;;;;;;5055295;28;20545;-69
2024/02/28 12:06:12;;;;;;;2.43;2.20;;;21.40;56.50;;;;;;5055714;28;20437;-68
2024/02/28 12:08:38;;;;;;;4.07;2.13;;;21.40;56.50;;;;;;5055088;28;20234;-69
2024/02/28 12:11:08;;;;;;;2.63;2.23;;;21.40;56.50;;;;;;5054902;28;20491;-70
2024/02/28 12:13:34;;;;;;;2.10;1.80;;;21.40;56.50;;;;;;5054837;28;20685;-69
2024/02/28 12:16:01;;;;;;;2.20;2.00;;;21.40;56.50;;;;;;5053296;28;20460;-70
2024/02/28 12:18:28;;;;;;;2.80;2.17;;;21.40;56.50;;;;;;5054864;28;20443;-70
2024/02/28 12:20:54;;;;;;;3.40;2.37;;;21.40;56.50;;;;;;5055033;28;20409;-69
2024/02/28 12:23:19;;;;;;;4.57;1.83;;;21.40;56.50;;;;;;5054869;28;21105;-70
2024/02/28 12:25:45;;;;;;;3.10;2.17;;;21.40;56.50;;;;;;5055011;28;20167;-69
2024/02/28 12:28:11;;;;;;;3.10;2.40;;;21.40;56.50;;;;;;5054718;28;20221;-69
2024/02/28 12:30:41;;;;;;;3.57;2.93;;;21.40;56.50;;;;;;5054853;28;20552;-70
2024/02/28 12:33:07;;;;;;;6.10;3.53;;;21.40;56.40;;;;;;5054611;28;20448;-68
2024/02/28 12:35:32;;;;;;;6.13;3.17;;;21.40;56.50;;;;;;5054612;28;20410;-68
2024/02/28 12:37:58;;;;;;;8.97;3.60;;;21.40;56.40;;;;;;5054756;28;20641;-70
2024/02/28 12:40:25;;;;;;;9.97;4.47;;;21.40;56.50;;;;;;5054790;28;20170;-70
2024/02/28 12:42:50;;;;;;;6.23;4.27;;;21.40;56.50;;;;;;5054644;28;20422;-70
2024/02/28 12:45:16;;;;;;;9.50;4.43;;;21.40;56.50;;;;;;5054403;28;20432;-70